createdAt,value
2022-07-29T00:02:44.166Z,3.40
2022-07-29T00:05:46.518Z,3.50
2022-07-29T00:08:48.780Z,3.60
2022-07-29T00:11:51.069Z,3.95
2022-07-29T00:14:57.382Z,3.70
2022-07-29T00:17:59.705Z,3.92
2022-07-29T00:21:01.964Z,3.83
2022-07-29T00:24:04.645Z,3.60
2022-07-29T00:27:07.146Z,3.65
2022-07-29T00:30:09.772Z,3.63
2022-07-29T00:33:12.013Z,3.45
2022-07-29T00:36:14.355Z,3.40
2022-07-29T00:39:16.576Z,3.60
2022-07-29T00:42:18.893Z,3.83
2022-07-29T00:45:21.215Z,3.78
2022-07-29T00:48:23.511Z,3.45
2022-07-29T00:51:28.119Z,3.75
2022-07-29T00:54:31.211Z,3.90
2022-07-29T00:57:34.335Z,3.50
2022-07-29T01:00:37.864Z,3.70
2022-07-29T01:03:40.224Z,3.40
2022-07-29T01:06:43.636Z,3.35
2022-07-29T01:09:47.308Z,3.50
2022-07-29T01:12:52.346Z,3.50
2022-07-29T01:16:10.440Z,3.58
2022-07-29T01:19:49.931Z,3.60
2022-07-29T01:23:06.373Z,3.83
2022-07-29T01:26:20.509Z,4.30
2022-07-29T01:29:40.548Z,3.90
2022-07-29T01:32:51.192Z,3.42
2022-07-29T01:35:53.566Z,3.55
2022-07-29T01:39:04.081Z,3.50
2022-07-29T01:42:27.542Z,3.73
2022-07-29T01:45:32.475Z,3.90
2022-07-29T01:48:48.310Z,4.00
2022-07-29T01:52:01.689Z,3.50
2022-07-29T01:55:17.662Z,3.75
2022-07-29T01:58:21.709Z,4.13
2022-07-29T02:01:26.056Z,4.35
2022-07-29T02:04:30.443Z,4.13
2022-07-29T02:07:36.689Z,3.70
2022-07-29T02:10:41.082Z,3.83
2022-07-29T02:13:44.833Z,3.90
2022-07-29T02:16:50.742Z,4.10
2022-07-29T02:19:57.775Z,3.80
2022-07-29T02:23:01.316Z,3.72
2022-07-29T02:26:03.996Z,4.05
2022-07-29T02:29:08.291Z,4.00
2022-07-29T02:32:12.160Z,3.80
2022-07-29T02:35:17.010Z,3.65
2022-07-29T02:38:39.720Z,3.60
2022-07-29T02:41:52.625Z,3.63
2022-07-29T02:44:55.159Z,4.20
2022-07-29T02:48:00.755Z,4.10
2022-07-29T02:51:09.251Z,4.18
2022-07-29T02:54:37.778Z,3.80
2022-07-29T02:57:54.549Z,3.65
2022-07-29T03:01:21.575Z,3.93
2022-07-29T03:04:26.759Z,3.70
2022-07-29T03:07:30.307Z,4.00
2022-07-29T03:10:33.040Z,3.90
2022-07-29T03:13:36.536Z,4.40
2022-07-29T03:16:41.261Z,3.87
2022-07-29T03:19:44.200Z,3.92
2022-07-29T03:22:49.937Z,3.78
2022-07-29T03:25:52.622Z,4.30
2022-07-29T03:28:55.880Z,3.85
2022-07-29T03:31:58.230Z,3.70
2022-07-29T03:35:00.915Z,3.88
2022-07-29T03:38:03.631Z,4.07
2022-07-29T03:41:11.689Z,4.20
2022-07-29T03:44:16.819Z,4.32
2022-07-29T03:47:43.708Z,3.87
2022-07-29T03:50:47.102Z,4.20
2022-07-29T03:53:49.508Z,4.15
2022-07-29T03:56:53.974Z,3.88
2022-07-29T03:59:56.620Z,4.38
2022-07-29T04:02:59.146Z,4.27
2022-07-29T04:06:09.464Z,4.15
2022-07-29T04:09:12.171Z,4.35
2022-07-29T04:12:14.400Z,4.40
2022-07-29T04:15:16.845Z,4.10
2022-07-29T04:18:19.172Z,4.20
2022-07-29T04:21:21.524Z,4.60
2022-07-29T04:24:23.770Z,4.00
2022-07-29T04:27:26.565Z,4.45
2022-07-29T04:30:29.938Z,4.20
2022-07-29T04:33:32.235Z,4.33
2022-07-29T04:36:34.584Z,4.80
2022-07-29T04:39:36.837Z,4.40
2022-07-29T04:42:46.211Z,4.35
2022-07-29T04:45:49.379Z,4.93
2022-07-29T04:48:51.631Z,4.63
2022-07-29T04:51:54.221Z,4.63
2022-07-29T04:54:56.461Z,5.03
2022-07-29T04:57:58.760Z,4.88
2022-07-29T05:01:01.064Z,4.57
2022-07-29T05:04:03.469Z,4.40
2022-07-29T05:07:05.801Z,4.45
2022-07-29T05:10:10.799Z,4.45
2022-07-29T05:13:13.478Z,4.70
2022-07-29T05:16:15.936Z,4.40
2022-07-29T05:19:18.703Z,4.47
2022-07-29T05:22:27.636Z,4.15
2022-07-29T05:25:42.958Z,4.32
2022-07-29T05:28:46.396Z,4.65
2022-07-29T05:31:48.747Z,4.50
2022-07-29T05:34:51.896Z,4.47
2022-07-29T05:37:54.364Z,4.60
2022-07-29T05:40:59.161Z,4.15
2022-07-29T05:44:01.549Z,3.85
2022-07-29T05:47:04.045Z,4.30
2022-07-29T05:50:10.552Z,4.20
2022-07-29T05:53:20.112Z,4.10
2022-07-29T05:56:22.980Z,4.28
2022-07-29T05:59:30.107Z,4.30
2022-07-29T06:02:32.956Z,4.57
2022-07-29T06:05:35.443Z,4.20
2022-07-29T06:08:38.163Z,4.30
2022-07-29T06:11:40.936Z,4.30
2022-07-29T06:14:43.274Z,4.03
2022-07-29T06:17:59.907Z,4.63
2022-07-29T06:21:09.666Z,4.33
2022-07-29T06:24:13.918Z,4.38
2022-07-29T06:27:17.373Z,4.60
2022-07-29T06:30:19.807Z,4.00
2022-07-29T06:33:22.197Z,4.57
2022-07-29T06:36:24.613Z,4.47
2022-07-29T06:39:27.572Z,4.32
2022-07-29T06:42:29.967Z,4.65
2022-07-29T06:45:35.126Z,4.20
2022-07-29T06:48:38.189Z,4.30
2022-07-29T06:51:40.576Z,4.00
2022-07-29T06:54:48.999Z,4.00
2022-07-29T06:57:51.410Z,4.65
2022-07-29T07:00:53.927Z,4.88
2022-07-29T07:03:57.186Z,4.85
2022-07-29T07:07:00.604Z,4.70
2022-07-29T07:10:02.945Z,4.80
2022-07-29T07:13:06.417Z,4.55
2022-07-29T07:16:11.367Z,5.00
2022-07-29T07:19:14.368Z,5.13
2022-07-29T07:22:16.904Z,4.67
2022-07-29T07:25:19.465Z,4.72
2022-07-29T07:28:24.971Z,4.68
2022-07-29T07:31:27.689Z,4.65
2022-07-29T07:34:31.151Z,4.63
2022-07-29T07:37:33.888Z,4.83
2022-07-29T07:40:36.610Z,5.80
2022-07-29T07:43:39.123Z,4.90
2022-07-29T07:46:41.476Z,4.72
2022-07-29T07:49:45.055Z,4.53
2022-07-29T07:52:52.970Z,4.40
2022-07-29T07:56:12.281Z,4.80
2022-07-29T07:59:15.142Z,4.45
2022-07-29T08:02:17.740Z,4.60
2022-07-29T08:05:20.267Z,4.60
2022-07-29T08:08:22.699Z,4.53
2022-07-29T08:11:25.048Z,4.25
2022-07-29T08:14:27.460Z,4.45
2022-07-29T08:17:29.856Z,4.50
2022-07-29T08:20:34.273Z,4.68
2022-07-29T08:23:46.427Z,4.60
2022-07-29T08:26:52.033Z,4.38
2022-07-29T08:29:56.820Z,4.13
2022-07-29T08:32:59.866Z,4.80
2022-07-29T08:36:02.290Z,5.10
2022-07-29T08:39:05.323Z,4.57
2022-07-29T08:42:08.161Z,4.32
2022-07-29T08:45:11.041Z,4.65
2022-07-29T08:48:14.629Z,4.00
2022-07-29T08:51:20.663Z,4.20
2022-07-29T08:54:25.017Z,4.47
2022-07-29T08:57:28.474Z,4.05
2022-07-29T09:00:34.071Z,3.67
2022-07-29T09:03:38.390Z,3.80
2022-07-29T09:06:45.039Z,3.42
2022-07-29T09:09:47.948Z,3.43
2022-07-29T09:12:50.542Z,3.20
2022-07-29T09:15:53.771Z,3.13
2022-07-29T09:18:56.187Z,3.30
2022-07-29T09:22:01.144Z,3.47
2022-07-29T09:25:06.273Z,3.37
2022-07-29T09:28:17.655Z,3.28
2022-07-29T09:31:33.062Z,3.35
2022-07-29T09:34:35.643Z,3.40
2022-07-29T09:37:38.076Z,3.78
2022-07-29T09:40:40.941Z,3.60
2022-07-29T09:43:55.158Z,3.60
2022-07-29T09:46:59.813Z,3.90
2022-07-29T09:50:02.305Z,3.80
2022-07-29T09:53:05.004Z,3.92
2022-07-29T09:56:07.396Z,4.47
2022-07-29T09:59:12.280Z,4.10
2022-07-29T10:02:20.317Z,4.25
2022-07-29T10:05:36.529Z,3.95
2022-07-29T10:08:39.517Z,4.25
2022-07-29T10:11:49.754Z,4.10
2022-07-29T10:14:52.684Z,4.10
2022-07-29T10:17:58.518Z,4.28
2022-07-29T10:21:02.203Z,4.60
2022-07-29T10:24:05.954Z,4.15
2022-07-29T10:27:09.785Z,4.00
2022-07-29T10:30:17.617Z,4.40
2022-07-29T10:33:42.393Z,4.72
2022-07-29T10:37:21.184Z,4.35
2022-07-29T10:41:03.645Z,4.50
2022-07-29T10:44:23.301Z,4.60
2022-07-29T10:47:27.522Z,4.47
2022-07-29T10:50:56.372Z,4.50
2022-07-29T10:54:00.803Z,4.45
2022-07-29T10:57:53.775Z,4.43
2022-07-29T11:00:54.584Z,4.47
2022-07-29T11:03:58.799Z,4.22
2022-07-29T11:07:04.025Z,5.00
2022-07-29T11:10:12.711Z,4.35
2022-07-29T11:13:55.875Z,4.15
2022-07-29T11:17:06.411Z,4.47
2022-07-29T11:20:38.311Z,4.18
2022-07-29T11:23:44.625Z,4.63
2022-07-29T11:27:20.085Z,4.65
2022-07-29T11:30:42.660Z,4.90
2022-07-29T11:33:56.223Z,4.50
2022-07-29T11:37:08.440Z,4.70
2022-07-29T11:40:13.279Z,4.35
2022-07-29T11:43:54.574Z,4.35
2022-07-29T11:46:57.119Z,4.40
2022-07-29T11:50:03.479Z,4.47
2022-07-29T11:53:14.870Z,4.80
2022-07-29T11:56:22.486Z,4.13
2022-07-29T11:59:33.041Z,4.78
2022-07-29T12:02:43.398Z,4.57
2022-07-29T12:07:03.869Z,4.70
2022-07-29T12:09:14.365Z,4.78
2022-07-29T12:12:18.072Z,5.03
2022-07-29T12:15:39.231Z,4.28
2022-07-29T12:18:57.457Z,4.75
2022-07-29T12:22:02.238Z,4.60
2022-07-29T12:28:39.429Z,5.00
2022-07-29T12:31:45.313Z,4.60
2022-07-29T12:34:48.665Z,4.45
2022-07-29T12:37:53.161Z,4.53
2022-07-29T12:40:58.684Z,4.78
2022-07-29T12:44:01.082Z,4.93
2022-07-29T12:47:06.366Z,4.70
2022-07-29T12:50:16.067Z,4.60
2022-07-29T12:53:22.137Z,4.90
2022-07-29T12:56:42.221Z,4.60
2022-07-29T12:59:46.063Z,5.10
2022-07-29T13:02:56.605Z,4.85
2022-07-29T13:05:59.177Z,4.93
2022-07-29T13:09:18.399Z,4.57
2022-07-29T13:12:21.944Z,4.28
2022-07-29T13:15:24.330Z,4.60
2022-07-29T13:18:35.055Z,4.22
2022-07-29T13:21:39.063Z,4.55
2022-07-29T13:24:51.487Z,4.20
2022-07-29T13:27:55.464Z,4.30
2022-07-29T13:30:58.028Z,4.20
2022-07-29T13:34:00.408Z,4.30
2022-07-29T13:37:03.260Z,4.45
2022-07-29T13:40:08.947Z,4.50
2022-07-29T13:43:12.003Z,4.28
2022-07-29T13:46:14.436Z,4.30
2022-07-29T13:49:16.889Z,3.80
2022-07-29T13:52:19.258Z,4.30
2022-07-29T13:55:22.188Z,4.40
2022-07-29T13:58:24.622Z,4.53
2022-07-29T14:01:28.629Z,4.60
2022-07-29T14:04:31.172Z,4.53
2022-07-29T14:07:33.966Z,4.60
2022-07-29T14:10:36.504Z,4.47
2022-07-29T14:13:38.944Z,4.57
2022-07-29T14:16:47.601Z,4.60
2022-07-29T14:19:52.911Z,4.28
2022-07-29T14:22:55.228Z,4.30
2022-07-29T14:25:57.773Z,4.47
2022-07-29T14:29:00.138Z,4.25
2022-07-29T14:32:05.488Z,4.20
2022-07-29T14:35:08.959Z,4.40
2022-07-29T14:38:11.423Z,3.80
2022-07-29T14:41:13.835Z,4.10
2022-07-29T14:44:16.538Z,4.47
2022-07-29T14:47:18.919Z,4.40
2022-07-29T14:50:23.367Z,4.30
2022-07-29T14:53:35.130Z,4.00
2022-07-29T14:56:37.860Z,3.70
2022-07-29T14:59:49.352Z,4.18
2022-07-29T15:03:02.055Z,4.10
2022-07-29T15:06:04.895Z,4.03
2022-07-29T15:09:07.466Z,4.10
2022-07-29T15:12:11.469Z,4.33
2022-07-29T15:15:13.945Z,4.07
2022-07-29T15:18:16.385Z,4.03
2022-07-29T15:21:28.676Z,4.40
2022-07-29T15:24:31.451Z,4.07
2022-07-29T15:27:34.041Z,4.57
2022-07-29T15:30:41.630Z,4.75
2022-07-29T15:33:44.179Z,4.43
2022-07-29T15:36:52.598Z,4.10
2022-07-29T15:39:59.750Z,4.40
2022-07-29T15:43:06.851Z,4.30
2022-07-29T15:46:27.900Z,4.00
2022-07-29T15:49:48.213Z,4.35
2022-07-29T15:52:52.002Z,4.28
2022-07-29T15:55:54.470Z,4.20
2022-07-29T15:58:57.523Z,4.37
2022-07-29T16:02:00.678Z,4.32
2022-07-29T16:05:03.225Z,4.80
2022-07-29T16:08:12.703Z,4.90
2022-07-29T16:11:15.406Z,4.35
2022-07-29T16:14:18.443Z,4.40
2022-07-29T16:17:20.910Z,4.78
2022-07-29T16:20:23.351Z,4.65
2022-07-29T16:23:25.822Z,4.63
2022-07-29T16:26:28.387Z,4.53
2022-07-29T16:29:32.079Z,5.00
2022-07-29T16:32:41.287Z,4.60
2022-07-29T16:35:43.731Z,4.57
2022-07-29T16:38:53.303Z,4.22
2022-07-29T16:41:59.839Z,4.43
2022-07-29T16:45:04.915Z,4.47
2022-07-29T16:48:07.606Z,4.60
2022-07-29T16:51:10.461Z,4.45
2022-07-29T16:54:16.814Z,4.55
2022-07-29T16:57:19.218Z,5.18
2022-07-29T17:00:22.216Z,4.80
2022-07-29T17:03:24.655Z,4.50
2022-07-29T17:06:27.331Z,4.95
2022-07-29T17:09:29.679Z,4.97
2022-07-29T17:12:32.502Z,4.70
2022-07-29T17:15:36.376Z,4.53
2022-07-29T17:18:39.063Z,4.40
2022-07-29T17:21:48.374Z,5.00
2022-07-29T17:24:51.839Z,4.60
2022-07-29T17:28:00.516Z,5.25
2022-07-29T17:31:03.392Z,5.00
2022-07-29T17:34:06.821Z,4.97
2022-07-29T17:37:11.778Z,4.80
2022-07-29T17:40:14.193Z,4.95
2022-07-29T17:43:16.605Z,4.70
2022-07-29T17:46:20.077Z,4.80
2022-07-29T17:49:22.698Z,5.28
2022-07-29T17:52:25.066Z,5.07
2022-07-29T17:55:27.784Z,5.18
2022-07-29T17:58:30.676Z,4.90
2022-07-29T18:01:33.938Z,5.17
2022-07-29T18:04:36.384Z,4.80
2022-07-29T18:07:38.894Z,4.95
2022-07-29T18:10:41.513Z,4.85
2022-07-29T18:13:44.044Z,5.03
2022-07-29T18:16:46.517Z,4.90
2022-07-29T18:19:49.140Z,4.85
2022-07-29T18:22:51.489Z,4.85
2022-07-29T18:25:53.928Z,5.13
2022-07-29T18:28:56.297Z,4.85
2022-07-29T18:32:01.867Z,5.80
2022-07-29T18:35:06.406Z,5.20
2022-07-29T18:38:08.908Z,5.63
2022-07-29T18:41:11.597Z,5.72
2022-07-29T18:44:17.021Z,5.85
2022-07-29T18:47:19.701Z,5.47
2022-07-29T18:50:28.789Z,5.78
2022-07-29T18:53:31.449Z,5.93
2022-07-29T18:56:39.374Z,6.15
2022-07-29T18:59:43.350Z,5.85
2022-07-29T19:02:45.929Z,6.47
2022-07-29T19:05:48.353Z,6.25
2022-07-29T19:08:52.392Z,5.90
2022-07-29T19:11:56.735Z,6.25
2022-07-29T19:15:00.524Z,5.90
2022-07-29T19:18:03.015Z,6.10
2022-07-29T19:21:05.506Z,6.05
2022-07-29T19:24:12.316Z,5.85
2022-07-29T19:27:17.285Z,5.78
2022-07-29T19:30:19.744Z,6.15
2022-07-29T19:33:22.264Z,5.63
2022-07-29T19:36:24.731Z,5.90
2022-07-29T19:39:34.974Z,5.35
2022-07-29T19:42:38.090Z,5.53
2022-07-29T19:45:40.735Z,5.43
2022-07-29T19:48:43.191Z,5.17
2022-07-29T19:51:45.727Z,5.10
2022-07-29T19:54:48.224Z,4.88
2022-07-29T19:57:51.193Z,6.90
2022-07-29T20:00:53.887Z,5.28
2022-07-29T20:03:56.327Z,5.10
2022-07-29T20:07:01.524Z,5.65
2022-07-29T20:10:06.456Z,4.88
2022-07-29T20:13:08.887Z,4.68
2022-07-29T20:16:11.444Z,4.40
2022-07-29T20:19:13.903Z,4.93
2022-07-29T20:22:21.095Z,4.60
2022-07-29T20:25:24.051Z,4.88
2022-07-29T20:28:26.507Z,4.78
2022-07-29T20:31:30.631Z,5.07
2022-07-29T20:34:33.288Z,4.37
2022-07-29T20:37:52.253Z,4.10
2022-07-29T20:40:58.918Z,4.00
2022-07-29T20:44:04.705Z,3.55
2022-07-29T20:47:07.174Z,4.30
2022-07-29T20:50:10.206Z,4.27
2022-07-29T20:53:12.796Z,4.15
2022-07-29T20:56:15.208Z,3.85
2022-07-29T20:59:17.847Z,3.70
2022-07-29T21:02:20.321Z,3.83
2022-07-29T21:05:23.116Z,3.47
2022-07-29T21:08:26.188Z,4.10
2022-07-29T21:11:43.162Z,3.45
2022-07-29T21:14:48.090Z,3.63
2022-07-29T21:17:52.720Z,3.70
2022-07-29T21:20:55.222Z,3.37
2022-07-29T21:23:57.721Z,2.95
2022-07-29T21:27:21.298Z,3.10
2022-07-29T21:30:24.349Z,3.13
2022-07-29T21:33:28.712Z,3.70
2022-07-29T21:36:48.520Z,3.10
2022-07-29T21:39:51.383Z,3.10
2022-07-29T21:42:53.876Z,3.33
2022-07-29T21:45:57.719Z,3.28
2022-07-29T21:49:00.251Z,3.38
2022-07-29T21:52:02.669Z,3.03
2022-07-29T21:55:05.580Z,2.75
2022-07-29T21:58:08.548Z,3.03
2022-07-29T22:01:11.117Z,2.90
2022-07-29T22:04:13.614Z,3.15
2022-07-29T22:07:16.128Z,3.30
2022-07-29T22:10:18.495Z,2.90
2022-07-29T22:13:20.951Z,2.88
2022-07-29T22:16:23.319Z,3.05
2022-07-29T22:19:27.400Z,3.28
2022-07-29T22:22:30.108Z,3.30
2022-07-29T22:25:32.727Z,3.40
2022-07-29T22:28:35.065Z,3.00
2022-07-29T22:31:37.620Z,3.10
2022-07-29T22:34:39.980Z,3.30
2022-07-29T22:37:42.445Z,3.30
2022-07-29T22:40:44.853Z,3.13
2022-07-29T22:43:47.798Z,3.70
2022-07-29T22:46:50.193Z,3.63
2022-07-29T22:49:52.713Z,3.35
2022-07-29T22:52:55.152Z,3.93
2022-07-29T22:55:57.634Z,3.78
2022-07-29T22:58:59.970Z,3.55
2022-07-29T23:02:02.365Z,3.70
2022-07-29T23:05:05.121Z,3.90
2022-07-29T23:08:09.124Z,3.57
2022-07-29T23:11:11.519Z,3.50
2022-07-29T23:14:13.930Z,3.45
2022-07-29T23:17:16.387Z,3.70
2022-07-29T23:20:19.262Z,4.10
2022-07-29T23:23:21.590Z,3.93
2022-07-29T23:26:23.994Z,3.70
2022-07-29T23:29:26.363Z,4.15
2022-07-29T23:32:28.771Z,4.22
2022-07-29T23:35:31.139Z,4.20
2022-07-29T23:38:33.592Z,3.83
2022-07-29T23:41:36.001Z,4.07
2022-07-29T23:44:38.511Z,3.97
2022-07-29T23:47:41.380Z,4.07
2022-07-29T23:50:44.108Z,4.00
2022-07-29T23:53:53.908Z,4.13
2022-07-29T23:56:58.099Z,4.30
